Time;durP1;ratioP1;P1;durP2;ratioP2;P2;SDS_P1;SDS_P2;PMS_P1;PMS_P2;Temp;Humidity;BMP_temperature;BMP_pressure;BME280_temperature;BME280_humidity;BME280_pressure;Samples;Min_cycle;Max_cycle;Signal;HPM_P1;HPM_P2
2021/05/20 00:00:11;;;;;;;6.10;3.97;;;10.90;97.30;;;;;;4938262;29;20469;-87
2021/05/20 00:02:38;;;;;;;7.80;4.50;;;10.90;97.30;;;;;;4936798;29;20454;-87
2021/05/20 00:05:05;;;;;;;6.60;3.80;;;10.90;97.30;;;;;;4936387;29;20439;-87
2021/05/20 00:07:30;;;;;;;9.30;3.77;;;10.90;97.30;;;;;;4937654;29;20415;-87
2021/05/20 00:09:56;;;;;;;5.30;3.83;;;10.90;97.30;;;;;;4936876;29;20952;-87
2021/05/20 00:12:22;;;;;;;3.83;3.47;;;10.90;97.30;;;;;;4936666;29;20207;-89
2021/05/20 00:14:47;;;;;;;7.00;3.70;;;11.00;97.30;;;;;;4936663;29;20190;-87
2021/05/20 00:17:12;;;;;;;8.10;4.10;;;11.00;97.30;;;;;;4953539;29;20254;-87
2021/05/20 00:19:38;;;;;;;5.67;4.60;;;10.90;97.30;;;;;;4937312;29;20230;-89
2021/05/20 00:22:04;;;;;;;6.07;4.10;;;10.90;97.30;;;;;;4954252;29;20177;-89
2021/05/20 00:24:29;;;;;;;8.00;4.80;;;10.80;97.30;;;;;;4937032;29;20578;-89
2021/05/20 00:26:55;;;;;;;5.50;4.50;;;10.70;97.30;;;;;;4937478;29;20218;-89
2021/05/20 00:29:20;;;;;;;8.20;4.70;;;10.70;97.30;;;;;;4937970;29;20202;-89
2021/05/20 00:31:46;;;;;;;7.40;5.07;;;10.70;97.30;;;;;;4937827;29;20221;-89
2021/05/20 00:34:11;;;;;;;9.10;5.27;;;10.70;97.30;;;;;;4937421;29;20199;-89
2021/05/20 00:36:37;;;;;;;6.63;5.20;;;10.60;97.30;;;;;;4937034;29;20179;-89
2021/05/20 00:39:04;;;;;;;8.50;5.10;;;10.60;97.30;;;;;;4936602;29;20198;-89
2021/05/20 00:41:29;;;;;;;9.33;4.90;;;10.60;97.30;;;;;;4938465;29;20194;-89
2021/05/20 00:43:55;;;;;;;10.30;6.20;;;10.60;97.30;;;;;;4940113;29;20435;-89
2021/05/20 00:46:20;;;;;;;7.47;5.63;;;10.60;97.30;;;;;;4940261;29;20183;-90
2021/05/20 00:48:46;;;;;;;10.40;5.90;;;10.50;97.30;;;;;;4940187;29;20637;-89
2021/05/20 00:51:12;;;;;;;9.00;5.70;;;10.50;97.30;;;;;;4939786;29;20266;-89
2021/05/20 00:53:37;;;;;;;13.43;5.90;;;10.50;97.30;;;;;;4956912;29;20214;-90
2021/05/20 00:56:03;;;;;;;6.90;5.80;;;10.50;97.30;;;;;;4939512;29;20183;-89
2021/05/20 00:58:29;;;;;;;8.73;5.97;;;10.50;97.30;;;;;;4940411;29;20207;-89
2021/05/20 01:00:55;;;;;;;9.10;6.03;;;10.50;97.30;;;;;;4941101;29;20442;-89
2021/05/20 01:03:22;;;;;;;11.13;4.97;;;10.50;97.30;;;;;;4940219;29;20603;-89
2021/05/20 01:05:49;;;;;;;10.23;5.90;;;10.40;97.30;;;;;;4940684;29;20454;-89
2021/05/20 01:08:15;;;;;;;8.50;5.80;;;10.40;97.30;;;;;;4939856;29;20422;-89
2021/05/20 01:10:40;;;;;;;8.93;5.50;;;10.40;97.30;;;;;;4940362;29;20418;-90
2021/05/20 01:13:06;;;;;;;6.60;5.30;;;10.40;97.30;;;;;;4940360;29;20222;-90
2021/05/20 01:15:33;;;;;;;9.83;6.17;;;10.40;97.30;;;;;;4940920;29;20172;-89
2021/05/20 01:18:00;;;;;;;8.00;5.60;;;10.40;97.30;;;;;;4940775;29;20187;-89
2021/05/20 01:20:35;;;;;;;8.80;5.33;;;10.40;97.30;;;;;;4957726;29;20621;-89
2021/05/20 01:23:11;;;;;;;8.93;5.70;;;10.50;97.30;;;;;;4940724;29;20457;-90
2021/05/20 01:25:39;;;;;;;7.57;5.17;;;10.40;97.30;;;;;;4940258;29;20430;-89
2021/05/20 01:28:10;;;;;;;7.03;4.40;;;10.40;97.30;;;;;;4939563;29;20470;-89
2021/05/20 01:30:40;;;;;;;8.03;5.03;;;10.40;97.30;;;;;;4957050;29;20442;-89
2021/05/20 01:33:06;;;;;;;7.03;5.33;;;10.40;97.30;;;;;;4939131;29;20426;-89
2021/05/20 01:35:31;;;;;;;7.13;5.03;;;10.40;97.30;;;;;;4939252;29;20609;-90
2021/05/20 01:41:01;;;;;;;6.83;4.50;;;10.40;97.30;;;;;;4955951;29;20179;-89
2021/05/20 01:43:27;;;;;;;7.63;4.80;;;10.30;97.30;;;;;;4955586;29;20447;-90
2021/05/20 01:46:00;;;;;;;7.07;4.80;;;10.30;97.30;;;;;;4938330;29;20806;-89
2021/05/20 01:48:30;;;;;;;7.60;4.97;;;10.20;97.30;;;;;;4956607;29;20454;-89
2021/05/20 01:51:10;;;;;;;10.40;4.73;;;10.20;97.30;;;;;;4938956;29;20428;-89
2021/05/20 01:53:37;;;;;;;7.13;5.00;;;10.10;97.30;;;;;;4938742;29;20449;-89
2021/05/20 01:56:04;;;;;;;7.50;5.30;;;10.10;97.30;;;;;;4939338;29;20419;-89
2021/05/20 01:58:30;;;;;;;8.10;5.53;;;10.10;97.30;;;;;;4938895;29;20422;-89
2021/05/20 02:00:56;;;;;;;7.67;4.70;;;10.00;97.30;;;;;;4939044;29;20419;-89
2021/05/20 02:03:22;;;;;;;10.20;6.10;;;10.00;97.30;;;;;;4939642;29;20237;-89
2021/05/20 02:05:47;;;;;;;8.77;5.00;;;10.10;97.30;;;;;;4940239;29;20278;-91
2021/05/20 02:08:13;;;;;;;10.33;5.30;;;10.10;97.30;;;;;;4939387;29;20704;-89
2021/05/20 02:10:39;;;;;;;9.37;5.07;;;10.10;97.30;;;;;;4939745;29;20183;-90
2021/05/20 02:13:05;;;;;;;11.07;5.70;;;10.10;97.30;;;;;;4939744;29;20418;-89
2021/05/20 02:15:31;;;;;;;7.70;5.20;;;10.10;97.30;;;;;;4939052;29;20222;-90
2021/05/20 02:17:56;;;;;;;8.10;5.30;;;10.20;97.30;;;;;;4938465;29;20551;-90
2021/05/20 02:20:22;;;;;;;10.67;5.57;;;10.20;97.30;;;;;;4938205;29;20514;-89
2021/05/20 02:22:49;;;;;;;10.70;4.87;;;10.20;97.30;;;;;;4938629;29;20183;-89
2021/05/20 02:25:15;;;;;;;10.50;5.90;;;10.30;97.30;;;;;;4938251;29;20635;-89
2021/05/20 02:27:40;;;;;;;11.00;5.60;;;10.20;97.30;;;;;;4955796;29;20422;-90
2021/05/20 02:30:07;;;;;;;8.57;4.87;;;10.20;97.30;;;;;;4937796;29;21028;-90
2021/05/20 02:32:32;;;;;;;7.37;4.60;;;10.20;97.30;;;;;;4937625;29;20179;-90
2021/05/20 02:34:58;;;;;;;8.90;5.60;;;10.20;97.30;;;;;;4937588;29;20539;-89
2021/05/20 02:37:23;;;;;;;10.30;4.87;;;10.20;97.30;;;;;;4937999;29;20190;-90
2021/05/20 02:39:49;;;;;;;8.40;5.87;;;10.20;97.30;;;;;;4938188;29;20179;-89
2021/05/20 02:42:15;;;;;;;8.03;4.70;;;10.10;97.30;;;;;;4938354;29;20187;-89
2021/05/20 02:44:40;;;;;;;16.67;6.30;;;10.10;97.30;;;;;;4938181;29;20207;-89
2021/05/20 02:47:11;;;;;;;9.60;5.33;;;10.00;97.30;;;;;;4955782;29;20194;-89
2021/05/20 02:49:37;;;;;;;8.83;6.00;;;10.00;97.30;;;;;;4938983;29;20293;-90
2021/05/20 02:52:03;;;;;;;11.30;6.43;;;10.00;97.30;;;;;;4939126;29;20862;-89
2021/05/20 02:54:46;;;;;;;10.67;5.97;;;10.00;97.30;;;;;;4939569;29;20234;-91
2021/05/20 02:57:23;;;;;;;9.97;5.20;;;10.00;97.30;;;;;;4939513;29;20171;-90
2021/05/20 03:06:43;;;;;;;10.53;6.23;;;10.00;97.30;;;;;;4877652;29;20453;-89
2021/05/20 03:09:14;;;;;;;12.30;6.30;;;10.00;97.30;;;;;;4833337;29;20472;-89
2021/05/20 03:11:43;;;;;;;11.30;5.90;;;9.90;97.30;;;;;;4862016;29;20430;-91
2021/05/20 03:14:11;;;;;;;8.60;5.70;;;9.90;97.30;;;;;;4861746;29;20506;-89
2021/05/20 03:16:36;;;;;;;10.83;6.03;;;9.90;97.30;;;;;;4861770;29;20429;-89
2021/05/20 03:19:02;;;;;;;8.90;5.77;;;9.90;97.30;;;;;;4861195;29;20866;-89
2021/05/20 03:21:28;;;;;;;12.53;6.27;;;9.90;97.30;;;;;;4921065;29;20663;-90
2021/05/20 03:23:55;;;;;;;10.37;6.13;;;9.90;97.30;;;;;;4937081;29;20199;-89
2021/05/20 03:26:26;;;;;;;10.80;6.20;;;9.90;97.30;;;;;;5129700;27;20518;-88
2021/05/20 03:28:52;;;;;;;10.80;6.47;;;9.90;97.30;;;;;;5112132;28;20406;-88
2021/05/20 03:31:17;;;;;;;9.80;5.63;;;9.90;97.30;;;;;;5112034;28;20180;-89
2021/05/20 03:33:43;;;;;;;9.50;6.20;;;9.90;97.30;;;;;;5111912;28;20663;-89
2021/05/20 03:36:09;;;;;;;11.40;6.27;;;9.90;97.30;;;;;;5130784;28;20266;-88
2021/05/20 03:38:35;;;;;;;8.33;5.00;;;9.90;97.30;;;;;;5142488;22;20488;-89
2021/05/20 03:41:01;;;;;;;9.67;5.87;;;9.90;97.30;;;;;;5090117;28;20158;-87
2021/05/20 03:43:36;;;;;;;9.50;6.13;;;10.00;97.30;;;;;;5089095;28;20405;-86
2021/05/20 03:46:03;;;;;;;11.83;5.63;;;10.00;97.30;;;;;;5089560;28;20206;-86
2021/05/20 03:48:29;;;;;;;13.23;5.60;;;10.00;97.30;;;;;;5089403;28;20437;-87
2021/05/20 03:50:55;;;;;;;14.77;5.30;;;10.00;97.30;;;;;;5089162;28;20443;-86
2021/05/20 03:53:21;;;;;;;9.90;5.57;;;10.00;97.30;;;;;;5089266;28;20407;-86
2021/05/20 03:55:48;;;;;;;8.93;6.13;;;10.00;97.30;;;;;;5089383;28;20495;-89
2021/05/20 03:58:14;;;;;;;7.87;5.60;;;10.00;97.30;;;;;;5087368;28;20175;-89
2021/05/20 04:00:39;;;;;;;9.40;5.83;;;10.00;97.30;;;;;;5087671;28;20470;-88
2021/05/20 04:03:05;;;;;;;10.80;6.57;;;10.00;97.30;;;;;;5087501;28;20427;-86
2021/05/20 04:05:30;;;;;;;16.07;6.90;;;10.10;97.30;;;;;;5087335;28;20285;-89
2021/05/20 04:07:56;;;;;;;16.90;5.90;;;10.10;97.30;;;;;;5087153;28;20649;-88
2021/05/20 04:10:21;;;;;;;16.13;6.43;;;10.10;97.30;;;;;;5086540;28;20206;-89
2021/05/20 04:12:47;;;;;;;13.60;6.40;;;10.10;97.30;;;;;;5086936;28;20207;-89
2021/05/20 04:15:13;;;;;;;12.40;6.80;;;10.10;97.30;;;;;;5086917;28;20181;-89
2021/05/20 04:17:41;;;;;;;11.03;7.10;;;10.20;97.30;;;;;;5087745;28;20186;-89
2021/05/20 04:20:10;;;;;;;15.33;8.20;;;10.20;97.30;;;;;;5089573;28;20191;-89
2021/05/20 04:22:36;;;;;;;14.70;8.50;;;10.30;97.30;;;;;;5087621;28;20442;-88
2021/05/20 04:25:02;;;;;;;15.60;8.40;;;10.30;97.30;;;;;;5087170;28;20463;-88
2021/05/20 04:27:27;;;;;;;14.20;8.23;;;10.30;97.30;;;;;;5087556;28;20232;-89
2021/05/20 04:29:53;;;;;;;18.13;9.67;;;10.20;97.30;;;;;;5087724;28;20425;-89
2021/05/20 04:32:18;;;;;;;16.60;8.83;;;10.30;97.30;;;;;;5088330;28;20545;-89
2021/05/20 04:34:44;;;;;;;16.90;8.20;;;10.30;97.30;;;;;;5089531;28;20182;-88
2021/05/20 04:37:10;;;;;;;16.03;8.60;;;10.30;97.30;;;;;;5079586;28;20637;-89
2021/05/20 04:39:36;;;;;;;17.63;8.90;;;10.30;97.30;;;;;;5074806;28;20469;-89
2021/05/20 04:42:01;;;;;;;14.43;8.50;;;10.30;97.30;;;;;;5075874;28;20187;-89
2021/05/20 04:44:27;;;;;;;17.13;8.50;;;10.30;97.30;;;;;;5074889;28;20289;-89
2021/05/20 04:46:53;;;;;;;18.90;7.97;;;10.30;97.30;;;;;;5072789;28;20171;-89
2021/05/20 04:49:18;;;;;;;17.23;7.97;;;10.40;97.30;;;;;;5072229;28;20186;-89
2021/05/20 04:51:44;;;;;;;15.23;7.23;;;10.40;97.30;;;;;;5071845;28;20220;-89
2021/05/20 04:54:10;;;;;;;10.63;6.87;;;10.40;97.30;;;;;;5072699;28;20172;-89
2021/05/20 04:56:36;;;;;;;14.03;8.03;;;10.50;97.30;;;;;;5072891;28;20208;-89
2021/05/20 04:59:02;;;;;;;15.30;8.80;;;10.50;97.30;;;;;;5072484;28;20260;-88
2021/05/20 05:01:30;;;;;;;13.53;7.23;;;10.50;97.30;;;;;;5069636;28;20199;-88
2021/05/20 05:03:59;;;;;;;14.20;7.47;;;10.50;97.30;;;;;;5072760;28;20846;-88
2021/05/20 05:06:25;;;;;;;14.70;7.80;;;10.50;97.30;;;;;;5073240;28;20449;-87
2021/05/20 05:08:51;;;;;;;12.60;7.97;;;10.50;97.30;;;;;;5070961;28;21013;-88
2021/05/20 05:11:16;;;;;;;15.70;7.57;;;10.50;97.30;;;;;;5071322;28;20425;-88
2021/05/20 05:13:42;;;;;;;13.10;7.37;;;10.50;97.30;;;;;;5068271;28;20195;-88
2021/05/20 05:16:10;;;;;;;12.93;6.37;;;10.50;97.30;;;;;;5072673;28;20182;-88
2021/05/20 05:18:35;;;;;;;10.83;7.07;;;10.60;97.30;;;;;;5073561;28;20756;-88
2021/05/20 05:21:02;;;;;;;12.43;7.57;;;10.60;97.30;;;;;;5074138;28;20509;-88
2021/05/20 05:23:35;;;;;;;11.70;7.07;;;10.60;97.30;;;;;;5072253;28;20175;-89
2021/05/20 05:26:01;;;;;;;14.83;7.37;;;10.60;97.30;;;;;;5061961;28;20517;-88
2021/05/20 05:28:28;;;;;;;12.77;7.87;;;10.60;97.30;;;;;;5069964;28;20445;-88
2021/05/20 05:30:56;;;;;;;16.30;9.67;;;10.60;97.30;;;;;;5070935;28;20171;-89
2021/05/20 05:33:22;;;;;;;12.57;7.57;;;10.70;97.30;;;;;;5070899;28;20455;-89
2021/05/20 05:35:48;;;;;;;15.27;7.93;;;10.70;97.30;;;;;;5068656;28;20437;-89
2021/05/20 05:38:14;;;;;;;15.67;8.40;;;10.70;97.30;;;;;;5066683;28;20428;-89
2021/05/20 05:40:40;;;;;;;15.13;7.60;;;10.80;97.30;;;;;;5062075;28;20501;-90
2021/05/20 05:43:05;;;;;;;13.17;7.43;;;10.80;97.30;;;;;;5070066;28;20168;-90
2021/05/20 05:45:31;;;;;;;18.67;8.93;;;10.80;97.30;;;;;;5069363;28;20257;-90
2021/05/20 05:47:56;;;;;;;15.97;8.40;;;10.90;97.30;;;;;;5070323;28;20175;-89
2021/05/20 05:50:22;;;;;;;15.20;9.73;;;11.00;97.30;;;;;;5071026;28;20202;-89
2021/05/20 05:52:47;;;;;;;14.00;9.17;;;11.00;97.30;;;;;;5070919;28;20175;-90
2021/05/20 05:55:13;;;;;;;17.73;9.43;;;11.00;97.30;;;;;;5069239;28;20168;-88
2021/05/20 05:57:38;;;;;;;16.50;9.20;;;11.10;97.30;;;;;;5071418;28;20175;-89
2021/05/20 06:00:06;;;;;;;14.33;8.30;;;11.10;97.30;;;;;;5071228;28;20631;-88
2021/05/20 06:02:32;;;;;;;15.30;8.03;;;11.10;97.30;;;;;;5072396;28;20228;-89
2021/05/20 06:04:58;;;;;;;16.50;8.97;;;11.10;97.30;;;;;;5064901;28;20464;-89
2021/05/20 06:07:24;;;;;;;17.90;9.43;;;11.10;97.30;;;;;;5072271;28;20889;-86
2021/05/20 06:09:50;;;;;;;17.67;10.17;;;11.10;97.30;;;;;;5071841;28;20536;-87
2021/05/20 06:12:15;;;;;;;19.67;10.20;;;11.00;97.30;;;;;;5070990;28;20175;-87
2021/05/20 06:14:41;;;;;;;14.80;9.43;;;11.00;97.30;;;;;;5072079;28;20437;-87
2021/05/20 06:17:07;;;;;;;21.10;11.10;;;11.00;97.30;;;;;;5071108;28;20179;-85
2021/05/20 06:19:33;;;;;;;17.50;9.30;;;11.00;97.30;;;;;;5072134;28;20214;-87
2021/05/20 06:22:01;;;;;;;15.13;8.50;;;11.00;97.30;;;;;;5070844;28;20410;-86
2021/05/20 06:24:26;;;;;;;15.37;8.97;;;11.00;97.30;;;;;;5070085;28;20206;-87
2021/05/20 06:26:52;;;;;;;14.63;8.40;;;11.10;97.30;;;;;;5071838;28;20413;-88
2021/05/20 06:29:17;;;;;;;14.00;9.27;;;11.10;97.30;;;;;;5069837;28;20214;-87
2021/05/20 06:31:43;;;;;;;13.47;8.17;;;11.10;97.30;;;;;;5070205;28;20175;-87
2021/05/20 06:34:08;;;;;;;16.00;9.33;;;11.20;97.30;;;;;;5071536;28;20194;-87
2021/05/20 06:36:36;;;;;;;15.63;8.73;;;11.20;97.30;;;;;;5069251;28;20182;-86
2021/05/20 06:39:05;;;;;;;15.27;8.67;;;11.30;97.30;;;;;;5069492;28;20222;-87
2021/05/20 06:41:31;;;;;;;19.90;10.03;;;11.30;97.30;;;;;;5065628;28;20426;-88
2021/05/20 06:43:56;;;;;;;20.70;9.70;;;11.40;97.30;;;;;;5070599;28;20412;-88
2021/05/20 06:46:22;;;;;;;17.37;9.10;;;11.40;97.30;;;;;;5069147;28;20241;-87
2021/05/20 06:48:47;;;;;;;16.20;9.00;;;11.50;97.30;;;;;;5071369;28;20248;-89
2021/05/20 06:51:13;;;;;;;15.67;9.03;;;11.50;97.30;;;;;;5074098;28;20217;-86
2021/05/20 06:53:39;;;;;;;16.67;10.30;;;11.50;97.30;;;;;;5071699;28;20178;-87
2021/05/20 06:56:09;;;;;;;17.73;10.37;;;11.60;97.30;;;;;;5070698;28;20813;-89
2021/05/20 07:01:19;;;;;;;19.60;8.60;;;11.60;97.30;;;;;;5070148;28;20433;-86
2021/05/20 07:03:45;;;;;;;16.30;9.37;;;11.70;97.30;;;;;;5071142;28;20525;-87
2021/05/20 07:06:12;;;;;;;15.73;11.10;;;11.70;97.30;;;;;;5071356;28;20543;-88
2021/05/20 07:08:38;;;;;;;18.70;10.53;;;11.80;97.30;;;;;;5072052;28;20572;-88
2021/05/20 07:11:04;;;;;;;15.90;9.80;;;11.70;97.30;;;;;;5070359;28;20406;-87
2021/05/20 07:13:29;;;;;;;16.47;10.17;;;11.70;97.30;;;;;;5070274;28;20481;-87
2021/05/20 07:15:55;;;;;;;18.67;10.73;;;11.80;97.30;;;;;;5069817;28;20554;-87
2021/05/20 07:18:20;;;;;;;14.87;10.57;;;11.80;97.30;;;;;;5069851;28;20552;-88
2021/05/20 07:20:46;;;;;;;18.17;11.30;;;11.80;97.30;;;;;;5069518;28;20183;-87
2021/05/20 07:23:16;;;;;;;20.27;10.83;;;11.70;97.30;;;;;;5069860;28;20202;-87
2021/05/20 07:25:42;;;;;;;17.63;10.90;;;11.70;97.30;;;;;;5069235;28;20199;-87
2021/05/20 07:28:08;;;;;;;20.57;12.43;;;11.80;97.30;;;;;;5070725;28;20394;-87
2021/05/20 07:30:34;;;;;;;21.53;12.80;;;11.90;97.30;;;;;;5071161;28;20409;-87
2021/05/20 07:33:00;;;;;;;24.30;13.40;;;12.00;97.30;;;;;;5070441;28;20406;-87
2021/05/20 07:35:26;;;;;;;22.67;13.20;;;12.20;97.30;;;;;;5070256;28;20179;-88
2021/05/20 07:37:51;;;;;;;24.30;14.57;;;12.30;97.30;;;;;;5071365;28;20175;-87
2021/05/20 07:40:18;;;;;;;24.40;14.33;;;12.50;97.30;;;;;;5070432;28;20894;-87
2021/05/20 07:42:45;;;;;;;26.83;15.60;;;12.60;97.30;;;;;;5070725;28;20319;-88
2021/05/20 07:45:11;;;;;;;23.83;14.50;;;12.60;97.30;;;;;;5071177;28;20568;-87
2021/05/20 07:47:37;;;;;;;23.97;15.13;;;12.60;97.30;;;;;;5072900;28;20417;-88
2021/05/20 07:50:04;;;;;;;27.10;14.77;;;12.60;97.30;;;;;;5071657;28;20433;-87
2021/05/20 07:52:30;;;;;;;24.43;14.90;;;12.60;97.30;;;;;;5071607;28;20413;-87
2021/05/20 07:54:56;;;;;;;26.67;15.40;;;12.50;97.30;;;;;;5072284;28;20418;-87
2021/05/20 07:57:22;;;;;;;29.70;15.43;;;12.50;97.30;;;;;;5071592;28;20175;-88
2021/05/20 07:59:47;;;;;;;28.33;15.30;;;12.40;97.30;;;;;;5070334;28;20452;-87
2021/05/20 08:05:12;;;;;;;28.73;16.07;;;12.50;97.30;;;;;;5034599;28;20554;-88
2021/05/20 08:10:25;;;;;;;23.87;14.90;;;12.60;97.30;;;;;;5070781;28;20429;-86
2021/05/20 08:12:52;;;;;;;23.87;15.10;;;12.70;97.30;;;;;;5073825;28;20451;-87
2021/05/20 08:15:18;;;;;;;22.27;13.30;;;12.90;97.30;;;;;;5073360;28;20420;-86
2021/05/20 08:17:43;;;;;;;20.43;13.13;;;13.00;97.30;;;;;;5072551;28;20413;-87
2021/05/20 08:20:09;;;;;;;19.50;13.10;;;13.20;97.30;;;;;;5072425;28;20253;-87
2021/05/20 08:22:36;;;;;;;16.60;10.70;;;13.50;97.30;;;;;;5073284;28;20175;-87
2021/05/20 08:25:01;;;;;;;18.17;12.30;;;13.60;97.30;;;;;;5073642;28;20749;-87
2021/05/20 08:27:27;;;;;;;17.83;10.67;;;13.60;97.30;;;;;;5073629;28;20412;-88
2021/05/20 08:29:52;;;;;;;18.50;12.03;;;13.60;97.30;;;;;;5074879;28;20210;-89
2021/05/20 08:32:18;;;;;;;15.93;11.30;;;13.50;97.30;;;;;;5095778;28;20163;-88
2021/05/20 08:34:43;;;;;;;17.20;10.13;;;13.50;97.30;;;;;;5088526;28;20560;-86
2021/05/20 08:37:09;;;;;;;14.50;8.90;;;13.50;97.30;;;;;;5073046;28;20224;-86
2021/05/20 08:39:34;;;;;;;13.20;9.00;;;13.50;97.30;;;;;;5073386;28;20711;-88
2021/05/20 08:42:00;;;;;;;13.20;8.70;;;13.50;97.30;;;;;;5074488;28;20632;-87
2021/05/20 08:44:28;;;;;;;13.30;9.87;;;13.50;97.30;;;;;;5074328;28;20560;-87
2021/05/20 08:46:56;;;;;;;18.20;10.30;;;13.50;97.30;;;;;;5074210;28;20190;-88
2021/05/20 08:49:22;;;;;;;14.07;9.00;;;13.60;97.30;;;;;;5074226;28;20473;-87
2021/05/20 08:51:48;;;;;;;13.40;9.30;;;13.50;97.30;;;;;;5075476;28;20421;-88
2021/05/20 08:54:14;;;;;;;18.63;10.57;;;13.50;97.30;;;;;;5073917;28;20171;-88
2021/05/20 08:56:54;;;;;;;12.53;9.47;;;13.50;97.30;;;;;;5077537;28;20202;-87
2021/05/20 08:59:21;;;;;;;15.83;9.73;;;13.50;97.30;;;;;;5072775;28;20441;-87
2021/05/20 09:01:48;;;;;;;14.90;9.90;;;13.40;97.30;;;;;;5074118;28;20424;-86
2021/05/20 09:04:13;;;;;;;15.97;11.30;;;13.30;97.30;;;;;;5072655;28;20433;-88
2021/05/20 09:07:02;;;;;;;15.90;10.90;;;13.30;97.30;;;;;;5073748;28;20945;-87
2021/05/20 09:09:37;;;;;;;17.30;12.47;;;13.20;97.30;;;;;;5066471;28;20306;-87
2021/05/20 09:12:03;;;;;;;16.93;11.50;;;13.30;97.30;;;;;;5068205;28;20421;-88
2021/05/20 09:14:41;;;;;;;16.30;10.90;;;13.50;97.30;;;;;;5071218;28;20429;-87
2021/05/20 09:17:12;;;;;;;16.80;11.30;;;13.80;97.30;;;;;;5071011;28;20461;-88
2021/05/20 09:19:41;;;;;;;20.30;11.87;;;14.10;97.30;;;;;;5071979;28;20472;-88
2021/05/20 09:22:12;;;;;;;14.73;10.07;;;14.40;97.30;;;;;;5071808;28;20440;-88
2021/05/20 09:24:49;;;;;;;16.43;11.23;;;14.40;97.10;;;;;;5073175;28;20456;-87
2021/05/20 09:27:34;;;;;;;17.67;11.33;;;14.30;97.00;;;;;;5073041;28;20468;-87
2021/05/20 09:30:21;;;;;;;15.33;10.13;;;14.30;97.30;;;;;;5069642;28;20511;-89
2021/05/20 09:32:52;;;;;;;20.20;12.13;;;14.20;97.30;;;;;;5073689;28;20410;-88
2021/05/20 09:35:27;;;;;;;16.23;10.43;;;14.20;97.30;;;;;;5072068;28;20951;-87
2021/05/20 09:38:16;;;;;;;13.13;8.60;;;14.30;97.30;;;;;;5073098;28;20433;-87
2021/05/20 09:40:56;;;;;;;14.73;9.63;;;14.40;96.50;;;;;;5095111;22;20688;-75
2021/05/20 09:43:44;;;;;;;16.63;10.70;;;14.30;95.20;;;;;;5070462;28;20958;-75
2021/05/20 09:46:15;;;;;;;16.10;11.00;;;14.30;96.50;;;;;;5071860;28;20512;-75
2021/05/20 09:48:43;;;;;;;13.80;9.63;;;14.40;96.40;;;;;;5070514;28;20417;-74
2021/05/20 09:51:24;;;;;;;13.50;9.53;;;14.40;96.90;;;;;;5069969;28;20448;-75
2021/05/20 09:53:52;;;;;;;12.57;8.90;;;14.40;96.40;;;;;;5071646;28;20426;-75
2021/05/20 09:56:32;;;;;;;9.83;7.30;;;14.30;96.40;;;;;;5070145;28;20516;-75
2021/05/20 09:58:58;;;;;;;13.33;7.60;;;14.30;94.90;;;;;;5071213;28;20787;-74
2021/05/20 10:01:23;;;;;;;10.80;7.27;;;14.40;94.50;;;;;;5069358;28;20540;-75
2021/05/20 10:03:57;;;;;;;12.93;7.90;;;14.70;94.60;;;;;;5071588;28;20199;-74
2021/05/20 10:06:43;;;;;;;14.37;9.43;;;15.10;94.00;;;;;;5069539;28;20203;-74
2021/05/20 10:09:11;;;;;;;13.80;8.90;;;15.10;93.60;;;;;;5069240;28;20425;-75
2021/05/20 10:11:37;;;;;;;12.17;8.53;;;15.00;94.70;;;;;;5069677;28;20476;-75
2021/05/20 10:14:05;;;;;;;9.50;7.30;;;14.70;94.00;;;;;;5069781;28;20509;-75
2021/05/20 10:16:32;;;;;;;13.93;8.50;;;14.60;95.30;;;;;;5069218;28;20430;-74
2021/05/20 10:18:58;;;;;;;11.00;8.83;;;14.50;94.60;;;;;;5069373;28;20418;-75
2021/05/20 10:21:29;;;;;;;12.47;8.27;;;14.40;94.60;;;;;;5069548;28;20456;-75
2021/05/20 10:23:56;;;;;;;11.57;8.03;;;14.30;94.40;;;;;;5067596;28;20292;-75
2021/05/20 10:26:22;;;;;;;13.67;9.27;;;14.40;95.80;;;;;;5069354;28;20477;-75
2021/05/20 10:28:48;;;;;;;18.17;8.27;;;14.40;95.30;;;;;;5069811;28;20976;-74
2021/05/20 10:31:14;;;;;;;13.63;8.50;;;14.40;95.20;;;;;;5069707;28;20210;-75
2021/05/20 10:33:42;;;;;;;14.43;8.77;;;14.50;95.10;;;;;;5065814;28;20176;-75
2021/05/20 10:36:23;;;;;;;15.80;9.43;;;14.50;95.30;;;;;;5061285;28;20426;-75
2021/05/20 10:38:49;;;;;;;11.57;8.03;;;14.60;94.00;;;;;;5065628;28;20436;-76
2021/05/20 10:41:20;;;;;;;12.33;8.30;;;14.60;95.00;;;;;;5069183;28;20453;-75
2021/05/20 10:44:07;;;;;;;12.23;8.27;;;14.70;92.60;;;;;;5069626;28;20206;-75
2021/05/20 10:47:06;;;;;;;9.60;6.83;;;15.00;93.20;;;;;;5069590;28;20463;-75
2021/05/20 10:49:51;;;;;;;9.13;6.80;;;15.50;92.20;;;;;;5069743;28;20418;-75
2021/05/20 10:52:35;;;;;;;8.53;6.27;;;15.90;89.60;;;;;;5068336;28;20959;-74
2021/05/20 10:55:03;;;;;;;7.37;5.83;;;16.20;87.40;;;;;;5069053;28;20421;-74
2021/05/20 10:58:02;;;;;;;7.30;6.00;;;16.30;87.50;;;;;;5069334;28;20433;-73
2021/05/20 11:00:39;;;;;;;10.07;6.47;;;16.50;87.20;;;;;;5068198;28;20425;-73
2021/05/20 11:03:04;;;;;;;11.23;6.70;;;16.70;86.50;;;;;;5067324;28;20441;-75
2021/05/20 11:05:42;;;;;;;8.77;6.50;;;16.70;85.40;;;;;;5069126;28;20537;-74
2021/05/20 11:08:09;;;;;;;7.40;5.63;;;16.90;87.20;;;;;;5070664;28;20189;-74
2021/05/20 11:10:36;;;;;;;8.70;6.50;;;16.70;86.60;;;;;;5070536;28;20513;-74
2021/05/20 11:13:03;;;;;;;12.63;7.37;;;16.60;87.50;;;;;;5070773;28;20539;-74
2021/05/20 11:15:28;;;;;;;12.60;7.73;;;16.50;87.60;;;;;;5069031;28;20829;-75
2021/05/20 11:17:54;;;;;;;15.53;7.67;;;16.50;87.30;;;;;;5068275;28;20522;-75
2021/05/20 11:20:27;;;;;;;8.47;6.27;;;16.50;88.30;;;;;;5062218;28;20180;-75
2021/05/20 11:23:12;;;;;;;8.83;6.10;;;16.50;86.80;;;;;;5050009;28;20180;-73
2021/05/20 11:25:44;;;;;;;10.60;7.00;;;16.50;87.50;;;;;;5065597;28;20936;-75
2021/05/20 11:28:12;;;;;;;8.70;6.43;;;16.30;87.90;;;;;;5068274;28;20444;-75
2021/05/20 11:31:11;;;;;;;8.53;6.10;;;16.20;87.00;;;;;;5070474;28;20425;-76
2021/05/20 11:33:49;;;;;;;10.60;5.80;;;16.40;86.70;;;;;;5068045;28;20421;-75
2021/05/20 11:36:15;;;;;;;8.30;6.17;;;16.60;84.60;;;;;;5069256;28;20463;-74
2021/05/20 11:38:53;;;;;;;8.53;6.00;;;16.90;86.90;;;;;;5068070;28;20426;-74
2021/05/20 11:41:19;;;;;;;6.40;5.10;;;17.00;84.60;;;;;;5059663;28;20230;-75
2021/05/20 11:43:46;;;;;;;7.20;5.17;;;17.10;84.30;;;;;;5069367;28;20428;-74
2021/05/20 11:46:22;;;;;;;8.53;5.17;;;17.30;85.20;;;;;;5066625;28;20492;-74
2021/05/20 11:49:23;;;;;;;7.03;4.93;;;17.40;83.00;;;;;;5072227;28;20432;-74
2021/05/20 11:51:54;;;;;;;6.20;4.43;;;17.50;81.70;;;;;;5064891;28;20437;-74
2021/05/20 11:54:40;;;;;;;6.90;5.00;;;17.50;81.50;;;;;;5071553;28;20424;-75
2021/05/20 11:57:07;;;;;;;6.90;4.70;;;17.50;83.00;;;;;;5073883;28;20390;-75
2021/05/20 11:59:38;;;;;;;6.60;4.87;;;17.60;83.70;;;;;;5071405;28;20397;-75
2021/05/20 12:02:05;;;;;;;6.17;4.93;;;17.90;83.40;;;;;;5072397;28;20498;-74
2021/05/20 12:04:32;;;;;;;8.50;5.43;;;17.90;80.30;;;;;;5073547;28;20420;-74
2021/05/20 12:06:58;;;;;;;6.80;5.00;;;18.00;79.60;;;;;;5072685;28;20421;-74
2021/05/20 12:09:24;;;;;;;9.00;5.10;;;18.00;80.10;;;;;;5072656;28;20409;-75
2021/05/20 12:11:50;;;;;;;9.10;4.60;;;17.90;79.50;;;;;;5072309;28;20428;-76
2021/05/20 12:14:32;;;;;;;7.57;6.23;;;18.00;81.60;;;;;;5073620;28;20175;-74
2021/05/20 12:17:20;;;;;;;9.73;5.60;;;18.10;82.90;;;;;;5072196;28;20646;-74
2021/05/20 12:19:51;;;;;;;6.80;4.90;;;18.50;80.20;;;;;;5071908;28;20800;-74
2021/05/20 12:22:24;;;;;;;8.43;5.20;;;18.70;80.00;;;;;;5072328;28;20535;-75
2021/05/20 12:24:52;;;;;;;8.33;5.47;;;18.70;80.40;;;;;;5071771;28;20445;-75
2021/05/20 12:27:22;;;;;;;8.10;5.40;;;18.50;78.80;;;;;;5072759;28;20507;-75
2021/05/20 12:29:51;;;;;;;13.10;5.80;;;18.00;79.90;;;;;;5072160;28;20452;-75
2021/05/20 12:32:23;;;;;;;9.57;6.33;;;17.80;80.70;;;;;;5073160;28;20425;-75
2021/05/20 12:35:30;;;;;;;7.53;5.83;;;18.10;82.10;;;;;;5071823;28;20417;-75
2021/05/20 12:38:06;;;;;;;7.20;5.20;;;18.00;81.90;;;;;;5088435;28;20425;-75
2021/05/20 12:40:48;;;;;;;7.27;5.00;;;17.80;83.30;;;;;;5087809;28;20460;-75
2021/05/20 12:43:17;;;;;;;5.80;4.20;;;17.60;80.90;;;;;;5072620;28;20783;-75
2021/05/20 12:46:04;;;;;;;7.67;5.20;;;17.30;80.20;;;;;;5072727;28;21014;-75
2021/05/20 12:48:57;;;;;;;5.50;4.07;;;17.70;84.90;;;;;;5088727;28;20935;-75
2021/05/20 12:51:24;;;;;;;9.73;3.70;;;17.90;79.90;;;;;;5088760;28;20440;-75
2021/05/20 12:53:54;;;;;;;8.07;4.50;;;17.90;79.90;;;;;;5087252;28;20418;-76
2021/05/20 12:56:32;;;;;;;5.50;3.57;;;17.70;79.80;;;;;;5069647;28;20457;-76
2021/05/20 12:59:04;;;;;;;5.90;3.90;;;17.60;81.20;;;;;;5072550;28;20785;-75
2021/05/20 13:01:40;;;;;;;5.53;3.93;;;17.70;82.70;;;;;;5071639;28;20472;-75
2021/05/20 13:04:23;;;;;;;4.60;3.90;;;17.70;80.70;;;;;;5070817;28;20442;-75